createdAt,value
2023-04-11T00:00:31.708Z,16.30
2023-04-11T00:01:34.187Z,15.80
2023-04-11T00:02:36.399Z,14.50
2023-04-11T00:03:38.958Z,15.60
2023-04-11T00:04:41.627Z,15.70
2023-04-11T00:05:44.247Z,13.60
2023-04-11T00:06:47.513Z,17.40
2023-04-11T00:07:49.869Z,16.91
2023-04-11T00:08:52.794Z,16.30
2023-04-11T00:09:55.113Z,16.00
2023-04-11T00:10:58.543Z,16.10
2023-04-11T00:12:00.740Z,15.70
2023-04-11T00:13:02.913Z,15.40
2023-04-11T00:14:05.277Z,18.40
2023-04-11T00:15:07.943Z,17.10
2023-04-11T00:16:10.693Z,16.91
2023-04-11T00:17:13.073Z,14.50
2023-04-11T00:18:15.568Z,15.90
2023-04-11T00:19:17.555Z,16.70
2023-04-11T00:20:19.949Z,15.44
2023-04-11T00:21:22.450Z,16.40
2023-04-11T00:22:24.422Z,16.50
2023-04-11T00:23:26.282Z,15.56
2023-04-11T00:24:28.200Z,15.00
2023-04-11T00:25:30.398Z,16.67
2023-04-11T00:26:33.105Z,17.10
2023-04-11T00:27:35.456Z,16.90
2023-04-11T00:28:37.527Z,15.50
2023-04-11T00:29:40.316Z,14.33
2023-04-11T00:30:42.384Z,15.00
2023-04-11T00:31:44.577Z,16.50
2023-04-11T00:32:46.663Z,16.40
2023-04-11T00:33:49.229Z,16.60
2023-04-11T00:34:51.498Z,16.50
2023-04-11T00:35:53.642Z,15.60
2023-04-11T00:36:56.602Z,16.64
2023-04-11T00:37:58.769Z,16.60
2023-04-11T00:39:00.739Z,15.90
2023-04-11T00:40:07.369Z,15.40
2023-04-11T00:41:10.201Z,16.30
2023-04-11T00:42:12.209Z,15.64
2023-04-11T00:43:16.145Z,15.30
2023-04-11T00:44:18.024Z,17.33
2023-04-11T00:45:20.167Z,17.67
2023-04-11T00:46:22.642Z,15.00
2023-04-11T00:47:25.008Z,15.80
2023-04-11T00:48:27.073Z,16.40
2023-04-11T00:49:30.601Z,17.20
2023-04-11T00:50:32.814Z,13.90
2023-04-11T00:51:35.188Z,17.80
2023-04-11T00:52:37.963Z,16.60
2023-04-11T00:53:40.700Z,17.27
2023-04-11T00:54:42.863Z,18.00
2023-04-11T00:55:44.940Z,18.20
2023-04-11T00:56:47.628Z,17.30
2023-04-11T00:57:53.261Z,13.90
2023-04-11T00:58:56.459Z,16.10
2023-04-11T01:00:02.193Z,17.70
2023-04-11T01:01:05.285Z,17.80
2023-04-11T01:02:09.907Z,17.80
2023-04-11T01:03:12.490Z,17.73
2023-04-11T01:04:16.539Z,17.70
2023-04-11T01:05:19.053Z,16.80
2023-04-11T01:06:22.481Z,17.64
2023-04-11T01:07:26.306Z,18.50
2023-04-11T01:08:29.194Z,18.00
2023-04-11T01:09:33.716Z,17.80
2023-04-11T01:10:36.592Z,17.30
2023-04-11T01:11:39.262Z,16.40
2023-04-11T01:12:43.391Z,13.50
2023-04-11T01:13:46.299Z,19.80
2023-04-11T01:14:48.745Z,18.80
2023-04-11T01:15:50.722Z,19.00
2023-04-11T01:16:53.078Z,19.78
2023-04-11T01:17:55.590Z,19.50
2023-04-11T01:18:58.166Z,19.36
2023-04-11T01:20:00.935Z,19.70
2023-04-11T01:21:03.239Z,19.40
2023-04-11T01:22:05.944Z,16.50
2023-04-11T01:23:09.123Z,19.70
2023-04-11T01:24:11.340Z,19.10
2023-04-11T01:25:15.064Z,17.80
2023-04-11T01:26:18.226Z,15.70
2023-04-11T01:27:20.181Z,18.40
2023-04-11T01:28:23.204Z,18.09
2023-04-11T01:29:26.935Z,18.00
2023-04-11T01:30:29.255Z,17.00
2023-04-11T01:31:31.806Z,20.20
2023-04-11T01:32:34.314Z,18.50
2023-04-11T01:33:36.668Z,20.50
2023-04-11T01:34:40.532Z,19.40
2023-04-11T01:35:43.659Z,20.40
2023-04-11T01:36:47.616Z,20.90
2023-04-11T01:37:49.961Z,17.20
2023-04-11T01:38:52.806Z,19.80
2023-04-11T01:39:54.887Z,19.30
2023-04-11T01:40:58.889Z,19.36
2023-04-11T01:42:01.528Z,19.40
2023-04-11T01:43:03.650Z,19.50
2023-04-11T01:44:05.645Z,20.00
2023-04-11T01:45:09.877Z,20.00
2023-04-11T01:46:14.662Z,19.40
2023-04-11T01:47:16.980Z,18.80
2023-04-11T01:48:20.927Z,18.10
2023-04-11T01:49:24.790Z,19.80
2023-04-11T01:50:27.763Z,19.80
2023-04-11T01:51:30.732Z,19.70
2023-04-11T01:52:34.035Z,18.70
2023-04-11T01:53:36.206Z,19.70
2023-04-11T01:54:38.613Z,18.00
2023-04-11T01:55:41.047Z,19.18
2023-04-11T01:56:43.762Z,15.80
2023-04-11T01:57:47.696Z,19.30
2023-04-11T01:58:50.216Z,19.50
2023-04-11T01:59:52.852Z,20.10
2023-04-11T02:00:54.896Z,19.30
2023-04-11T02:01:58.054Z,19.20
2023-04-11T02:03:00.743Z,18.80
2023-04-11T02:04:04.217Z,18.40
2023-04-11T02:05:08.193Z,19.40
2023-04-11T02:06:10.860Z,18.60
2023-04-11T02:07:12.799Z,19.50
2023-04-11T02:08:15.153Z,20.30
2023-04-11T02:09:17.159Z,19.90
2023-04-11T02:10:19.671Z,17.80
2023-04-11T02:11:21.631Z,20.70
2023-04-11T02:12:44.192Z,18.60
2023-04-11T02:13:48.218Z,18.80
2023-04-11T02:14:50.112Z,19.00
2023-04-11T02:15:52.321Z,19.90
2023-04-11T02:16:55.562Z,19.55
2023-04-11T02:17:58.398Z,20.20
2023-04-11T02:19:00.455Z,20.60
2023-04-11T02:20:04.755Z,18.80
2023-04-11T02:21:07.000Z,18.64
2023-04-11T02:22:09.431Z,19.90
2023-04-11T02:23:11.269Z,20.00
2023-04-11T02:24:14.879Z,20.80
2023-04-11T02:25:17.068Z,19.50
2023-04-11T02:26:19.139Z,19.70
2023-04-11T02:27:21.466Z,20.44
2023-04-11T02:28:23.568Z,20.60
2023-04-11T02:29:28.194Z,18.90
2023-04-11T02:30:30.321Z,20.64
2023-04-11T02:31:32.809Z,20.20
2023-04-11T02:32:35.905Z,19.70
2023-04-11T02:33:37.841Z,19.70
2023-04-11T02:34:40.642Z,19.10
2023-04-11T02:35:42.804Z,19.30
2023-04-11T02:36:44.846Z,18.00
2023-04-11T02:37:47.110Z,19.56
2023-04-11T02:38:49.056Z,20.20
2023-04-11T02:39:51.045Z,18.89
2023-04-11T02:40:53.117Z,19.30
2023-04-11T02:41:55.008Z,20.33
2023-04-11T02:42:57.032Z,19.89
2023-04-11T02:43:59.373Z,20.20
2023-04-11T02:45:02.107Z,21.10
2023-04-11T02:46:12.600Z,21.20
2023-04-11T02:47:08.684Z,20.50
2023-04-11T02:48:11.322Z,19.60
2023-04-11T02:49:15.746Z,20.60
2023-04-11T02:50:20.156Z,20.40
2023-04-11T02:51:24.181Z,20.30
2023-04-11T02:52:26.997Z,19.00
2023-04-11T02:53:29.176Z,20.00
2023-04-11T02:54:32.202Z,20.30
2023-04-11T02:55:35.402Z,19.10
2023-04-11T02:56:38.066Z,18.70
2023-04-11T02:57:40.180Z,19.10
2023-04-11T02:58:45.028Z,20.20
2023-04-11T02:59:47.962Z,19.60
2023-04-11T03:00:54.153Z,18.90
2023-04-11T03:03:08.425Z,20.40
2023-04-11T03:04:12.771Z,20.20
2023-04-11T03:05:21.024Z,19.60
2023-04-11T03:06:24.584Z,19.10
2023-04-11T03:07:30.092Z,21.00
2023-04-11T03:08:33.389Z,20.80
2023-04-11T03:09:37.082Z,20.10
2023-04-11T03:10:40.493Z,20.50
2023-04-11T03:11:46.911Z,20.50
2023-04-11T03:12:49.489Z,20.40
2023-04-11T03:13:51.455Z,20.80
2023-04-11T03:14:53.314Z,19.78
2023-04-11T03:15:55.955Z,19.20
2023-04-11T03:17:00.008Z,19.70
2023-04-11T03:18:03.299Z,20.20
2023-04-11T03:19:05.432Z,20.00
2023-04-11T03:20:08.884Z,19.27
2023-04-11T03:21:10.974Z,16.80
2023-04-11T03:22:15.111Z,20.40
2023-04-11T03:23:20.370Z,20.20
2023-04-11T03:24:22.784Z,16.60
2023-04-11T03:25:26.113Z,19.70
2023-04-11T03:26:28.887Z,21.70
2023-04-11T03:27:32.865Z,20.80
2023-04-11T03:28:36.766Z,20.00
2023-04-11T03:29:39.166Z,20.60
2023-04-11T03:30:46.026Z,18.20
2023-04-11T03:31:50.524Z,20.60
2023-04-11T03:32:53.657Z,19.10
2023-04-11T03:33:55.850Z,19.60
2023-04-11T03:34:59.993Z,20.09
2023-04-11T03:36:02.301Z,20.10
2023-04-11T03:37:04.620Z,20.80
2023-04-11T03:38:07.616Z,20.10
2023-04-11T03:39:09.632Z,18.60
2023-04-11T03:40:12.949Z,20.30
2023-04-11T03:41:16.907Z,20.80
2023-04-11T03:42:20.506Z,19.30
2023-04-11T03:43:24.172Z,20.10
2023-04-11T03:44:27.092Z,19.55
2023-04-11T03:45:29.541Z,20.20
2023-04-11T03:46:33.215Z,21.20
2023-04-11T03:47:38.358Z,21.00
2023-04-11T03:48:42.632Z,20.40
2023-04-11T03:49:45.077Z,20.00
2023-04-11T03:50:48.091Z,20.40
2023-04-11T03:51:52.151Z,20.10
2023-04-11T03:52:54.218Z,20.20
2023-04-11T03:53:56.629Z,19.11
2023-04-11T03:55:01.803Z,20.00
2023-04-11T03:56:04.428Z,20.20
2023-04-11T03:57:08.432Z,20.60
2023-04-11T03:58:11.733Z,20.40
2023-04-11T03:59:15.444Z,19.80
2023-04-11T04:00:19.845Z,20.50
2023-04-11T04:01:23.904Z,19.80
2023-04-11T04:02:27.037Z,21.60
2023-04-11T04:03:29.889Z,20.40
2023-04-11T04:04:33.481Z,20.10
2023-04-11T04:05:40.755Z,19.60
2023-04-11T04:06:44.063Z,21.20
2023-04-11T04:07:46.724Z,20.60
2023-04-11T04:08:56.967Z,19.70
2023-04-11T04:10:00.179Z,17.50
2023-04-11T04:11:03.136Z,21.50
2023-04-11T04:12:07.065Z,20.00
2023-04-11T04:13:11.057Z,20.40
2023-04-11T04:14:15.078Z,19.60
2023-04-11T04:15:17.597Z,21.80
2023-04-11T04:16:21.775Z,20.20
2023-04-11T04:17:27.081Z,22.00
2023-04-11T04:18:29.699Z,20.00
2023-04-11T04:19:31.757Z,20.40
2023-04-11T04:20:34.248Z,20.00
2023-04-11T04:21:36.078Z,21.00
2023-04-11T04:22:38.187Z,20.00
2023-04-11T04:23:40.843Z,18.60
2023-04-11T04:24:57.081Z,20.50
2023-04-11T04:26:01.537Z,19.80
2023-04-11T04:27:05.239Z,20.00
2023-04-11T04:28:18.458Z,18.50
2023-04-11T04:29:20.722Z,20.20
2023-04-11T04:30:25.003Z,18.50
2023-04-11T04:31:29.758Z,19.80
2023-04-11T04:32:35.257Z,20.30
2023-04-11T04:33:39.738Z,18.70
2023-04-11T04:34:44.481Z,19.80
2023-04-11T04:35:46.898Z,20.73
2023-04-11T04:36:49.494Z,20.27
2023-04-11T04:37:58.154Z,18.70
2023-04-11T04:39:02.564Z,18.40
2023-04-11T04:40:07.541Z,19.70
2023-04-11T04:41:11.479Z,19.50
2023-04-11T04:42:14.606Z,18.50
2023-04-11T04:43:20.295Z,17.27
2023-04-11T04:44:24.341Z,15.70
2023-04-11T04:45:29.075Z,20.60
2023-04-11T04:46:33.190Z,17.50
2023-04-11T04:47:36.780Z,18.00
2023-04-11T04:48:39.086Z,17.40
2023-04-11T04:49:42.744Z,19.80
2023-04-11T04:50:45.134Z,18.90
2023-04-11T04:51:47.615Z,19.10
2023-04-11T04:52:50.813Z,19.55
2023-04-11T04:53:54.391Z,9.50
2023-04-11T04:54:58.049Z,18.82
2023-04-11T04:56:00.983Z,19.00
2023-04-11T04:57:04.281Z,18.30
2023-04-11T04:58:07.635Z,18.90
2023-04-11T04:59:10.371Z,16.60
2023-04-11T05:00:13.502Z,17.82
2023-04-11T05:01:17.779Z,18.10
2023-04-11T05:02:20.742Z,19.20
2023-04-11T05:03:23.922Z,17.90
2023-04-11T05:04:26.879Z,17.45
2023-04-11T05:05:33.533Z,18.00
2023-04-11T05:06:36.407Z,17.60
2023-04-11T05:07:38.927Z,18.90
2023-04-11T05:08:40.932Z,16.10
2023-04-11T05:09:45.049Z,18.30
2023-04-11T05:10:49.642Z,18.60
2023-04-11T05:11:52.546Z,18.60
2023-04-11T05:12:56.402Z,17.50
2023-04-11T05:13:58.693Z,16.73
2023-04-11T05:15:15.014Z,17.60
2023-04-11T05:16:18.738Z,16.70
2023-04-11T05:17:22.737Z,16.20
2023-04-11T05:18:25.761Z,17.00
2023-04-11T05:19:27.828Z,16.70
2023-04-11T05:20:30.041Z,16.40
2023-04-11T05:21:33.501Z,17.60
2023-04-11T05:22:36.330Z,16.90
2023-04-11T05:23:38.634Z,16.70
2023-04-11T05:24:40.784Z,18.00
2023-04-11T05:25:45.107Z,17.00
2023-04-11T05:26:48.463Z,17.40
2023-04-11T05:27:52.347Z,16.80
2023-04-11T05:28:56.549Z,17.20
2023-04-11T05:29:58.905Z,16.90
2023-04-11T05:31:02.370Z,15.60
2023-04-11T05:32:05.412Z,16.70
2023-04-11T05:33:08.749Z,16.00
2023-04-11T05:34:11.803Z,17.90
2023-04-11T05:35:14.164Z,16.18
2023-04-11T05:36:25.065Z,13.90
2023-04-11T05:37:27.169Z,15.00
2023-04-11T05:38:29.333Z,16.50
2023-04-11T05:39:31.384Z,15.70
2023-04-11T05:40:33.526Z,15.50
2023-04-11T05:41:35.530Z,14.89
2023-04-11T05:42:39.025Z,16.10
2023-04-11T05:43:41.022Z,15.11
2023-04-11T05:44:44.787Z,15.30
2023-04-11T05:45:47.135Z,15.40
2023-04-11T05:46:51.718Z,15.00
2023-04-11T05:47:53.928Z,16.00
2023-04-11T05:48:56.021Z,14.40
2023-04-11T05:49:58.777Z,15.56
2023-04-11T05:51:14.851Z,16.64
2023-04-11T05:52:16.880Z,15.70
2023-04-11T05:53:19.620Z,15.90
2023-04-11T05:55:44.360Z,15.60
2023-04-11T05:56:46.493Z,15.20
2023-04-11T05:57:48.727Z,14.90
2023-04-11T05:58:50.618Z,14.44
2023-04-11T05:59:53.176Z,14.56
2023-04-11T06:00:57.723Z,14.50
2023-04-11T06:02:00.086Z,14.40
2023-04-11T06:03:03.555Z,14.36
2023-04-11T06:04:05.984Z,14.30
2023-04-11T06:05:11.254Z,14.30
2023-04-11T06:06:14.105Z,14.60
2023-04-11T06:07:16.261Z,13.00
2023-04-11T06:08:18.587Z,13.30
2023-04-11T06:09:21.197Z,12.30
2023-04-11T06:10:23.861Z,12.60
2023-04-11T06:11:25.820Z,13.60
2023-04-11T06:12:27.873Z,12.50
2023-04-11T06:13:29.930Z,11.20
2023-04-11T06:14:32.293Z,13.10
2023-04-11T06:15:34.914Z,13.90
2023-04-11T06:16:38.554Z,12.40
2023-04-11T06:17:40.619Z,12.55
2023-04-11T06:18:42.656Z,12.10
2023-04-11T06:19:44.674Z,13.11
2023-04-11T06:20:47.083Z,12.80
2023-04-11T06:21:49.667Z,12.80
2023-04-11T06:22:51.768Z,11.70
2023-04-11T06:23:54.248Z,11.80
2023-04-11T06:24:56.820Z,11.91
2023-04-11T06:25:59.396Z,11.70
2023-04-11T06:27:01.974Z,11.60
2023-04-11T06:28:04.319Z,11.70
2023-04-11T06:29:07.215Z,11.00
2023-04-11T06:30:10.587Z,12.60
2023-04-11T06:31:12.661Z,12.50
2023-04-11T06:32:14.700Z,10.30
2023-04-11T06:33:16.798Z,11.60
2023-04-11T06:34:18.906Z,12.70
2023-04-11T06:35:21.121Z,11.10
2023-04-11T06:36:23.177Z,11.70
2023-04-11T06:37:25.144Z,10.40
2023-04-11T06:38:28.266Z,9.00
2023-04-11T06:39:30.326Z,10.80
2023-04-11T06:40:32.539Z,11.50
2023-04-11T06:41:34.743Z,11.80
2023-04-11T06:42:37.218Z,10.70
2023-04-11T06:43:39.206Z,9.10
2023-04-11T06:44:41.243Z,12.56
2023-04-11T06:45:43.802Z,12.00
2023-04-11T06:46:47.305Z,10.50
2023-04-11T06:47:49.580Z,11.10
2023-04-11T06:48:52.444Z,10.90
2023-04-11T06:49:55.642Z,12.10
2023-04-11T06:50:58.460Z,10.70
2023-04-11T06:52:01.148Z,10.50
2023-04-11T06:53:05.306Z,11.27
2023-04-11T06:54:11.284Z,11.60
2023-04-11T06:55:13.777Z,10.30
2023-04-11T06:56:16.972Z,9.00
2023-04-11T06:57:20.566Z,9.50
2023-04-11T06:58:23.184Z,11.30
2023-04-11T06:59:25.025Z,9.80
2023-04-11T07:00:27.566Z,8.90
2023-04-11T07:01:30.019Z,9.90
2023-04-11T07:02:34.441Z,10.30
2023-04-11T07:03:38.597Z,11.80
2023-04-11T07:04:43.647Z,10.30
2023-04-11T07:05:47.859Z,10.10
2023-04-11T07:06:53.540Z,9.60
2023-04-11T07:07:57.688Z,10.20
2023-04-11T07:09:00.755Z,9.90
2023-04-11T07:10:05.796Z,10.10
2023-04-11T07:11:09.612Z,10.30
2023-04-11T07:12:13.831Z,10.30
2023-04-11T07:13:17.852Z,10.60
2023-04-11T07:14:20.142Z,9.00
2023-04-11T07:15:23.553Z,10.00
2023-04-11T07:16:27.886Z,11.70
2023-04-11T07:17:30.616Z,10.80
2023-04-11T07:18:33.215Z,10.60
2023-04-11T07:19:35.613Z,9.70
2023-04-11T07:20:37.672Z,10.20
2023-04-11T07:21:40.475Z,10.80
2023-04-11T07:22:42.502Z,10.27
2023-04-11T07:23:48.013Z,10.70
2023-04-11T07:24:52.510Z,10.90
2023-04-11T07:25:56.350Z,11.00
2023-04-11T07:27:02.134Z,10.00
2023-04-11T07:28:05.816Z,10.70
2023-04-11T07:29:11.003Z,11.00
2023-04-11T07:30:15.253Z,9.30
2023-04-11T07:31:18.016Z,0.36
2023-04-11T07:32:25.682Z,9.36
2023-04-11T07:33:28.881Z,9.50
2023-04-11T07:34:31.412Z,10.20
2023-04-11T07:35:35.938Z,9.60
2023-04-11T07:36:39.693Z,9.80
2023-04-11T07:37:42.025Z,10.00
2023-04-11T07:38:43.893Z,9.20
2023-04-11T07:39:45.738Z,9.22
2023-04-11T07:40:47.866Z,8.70
2023-04-11T07:41:49.878Z,9.44
2023-04-11T07:42:52.183Z,8.78
2023-04-11T07:43:55.612Z,9.50
2023-04-11T07:44:57.854Z,9.70
2023-04-11T07:45:59.952Z,9.22
2023-04-11T07:47:05.318Z,9.50
2023-04-11T07:48:08.089Z,9.50
2023-04-11T07:49:09.913Z,8.00
2023-04-11T07:50:13.367Z,8.90
2023-04-11T07:51:15.958Z,9.20
2023-04-11T07:52:18.003Z,8.20
2023-04-11T07:53:21.159Z,8.80
2023-04-11T07:54:23.493Z,10.00
2023-04-11T07:55:25.912Z,8.00
2023-04-11T07:56:27.963Z,8.10
2023-04-11T07:57:30.774Z,8.10
2023-04-11T07:58:33.229Z,8.20
2023-04-11T07:59:35.219Z,8.60
2023-04-11T08:00:37.668Z,8.70
2023-04-11T08:01:39.782Z,8.00
2023-04-11T08:02:45.187Z,8.70
2023-04-11T08:03:48.385Z,7.80
2023-04-11T08:04:51.148Z,8.60
2023-04-11T08:05:53.754Z,9.10
2023-04-11T08:06:55.714Z,8.70
2023-04-11T08:07:57.627Z,7.44
2023-04-11T08:08:59.531Z,8.67
2023-04-11T08:10:01.945Z,8.22
2023-04-11T08:11:04.717Z,8.50
2023-04-11T08:12:06.792Z,8.90
2023-04-11T08:13:09.443Z,8.60
2023-04-11T08:14:11.805Z,7.40
2023-04-11T08:15:14.519Z,7.90
2023-04-11T08:16:16.750Z,8.27
2023-04-11T08:17:27.655Z,7.70
2023-04-11T08:18:23.233Z,8.00
2023-04-11T08:19:25.148Z,8.10
2023-04-11T08:20:41.140Z,7.70
2023-04-11T08:22:52.736Z,8.80
2023-04-11T08:23:54.721Z,8.33
2023-04-11T08:24:57.753Z,7.30
2023-04-11T08:26:00.333Z,7.80
2023-04-11T08:27:03.092Z,7.30
2023-04-11T08:29:18.092Z,9.20
2023-04-11T08:30:21.022Z,8.30
2023-04-11T08:31:23.205Z,7.40
2023-04-11T08:32:26.126Z,7.80
2023-04-11T08:33:28.611Z,8.82
2023-04-11T08:34:33.575Z,8.60
2023-04-11T08:35:35.626Z,9.30
2023-04-11T08:36:38.174Z,7.40
2023-04-11T08:37:40.432Z,7.70
2023-04-11T08:38:43.206Z,9.70
2023-04-11T08:39:45.702Z,8.70
2023-04-11T08:40:47.751Z,8.00
2023-04-11T08:41:50.662Z,8.00
2023-04-11T08:43:00.451Z,8.10
2023-04-11T08:44:02.871Z,4.20
2023-04-11T08:45:13.028Z,7.30
2023-04-11T08:46:18.765Z,8.50
2023-04-11T08:47:22.812Z,7.90
2023-04-11T08:48:24.804Z,8.30
2023-04-11T08:49:30.636Z,7.80
2023-04-11T08:51:46.867Z,8.50
2023-04-11T08:52:49.157Z,7.60
2023-04-11T08:53:55.654Z,7.30
2023-04-11T08:54:58.258Z,7.80
2023-04-11T08:56:00.240Z,7.50
2023-04-11T08:57:03.567Z,8.00
2023-04-11T08:58:06.317Z,6.70
2023-04-11T08:59:12.396Z,6.45
2023-04-11T09:00:19.137Z,7.20
2023-04-11T09:01:30.428Z,8.80
2023-04-11T09:02:34.168Z,6.60
2023-04-11T09:03:53.830Z,3.80
2023-04-11T09:05:00.637Z,7.20
2023-04-11T09:06:06.940Z,6.40
2023-04-11T09:07:13.514Z,6.80
2023-04-11T09:08:16.399Z,6.90
2023-04-11T09:09:28.884Z,7.55
2023-04-11T09:10:31.579Z,7.50
2023-04-11T09:13:20.308Z,7.30
2023-04-11T09:14:28.153Z,6.30
2023-04-11T09:15:30.566Z,6.70
2023-04-11T09:16:37.728Z,6.90
2023-04-11T09:17:43.897Z,6.40
2023-04-11T09:18:46.902Z,7.10
2023-04-11T09:19:50.563Z,6.90
2023-04-11T09:20:58.749Z,7.10
2023-04-11T09:22:04.259Z,5.60
2023-04-11T09:23:06.353Z,6.10
2023-04-11T09:24:16.908Z,6.20
2023-04-11T09:25:23.701Z,6.40
2023-04-11T09:26:28.594Z,6.20
2023-04-11T09:27:31.697Z,7.60
2023-04-11T09:28:46.536Z,6.60
2023-04-11T09:29:48.653Z,6.70
2023-04-11T09:30:55.592Z,6.20
2023-04-11T09:31:58.696Z,6.30
2023-04-11T09:34:28.151Z,6.10
2023-04-11T09:35:30.619Z,5.80
2023-04-11T09:36:34.306Z,6.20
2023-04-11T09:39:22.336Z,5.40
2023-04-11T09:40:26.640Z,7.70
2023-04-11T09:41:35.954Z,6.60
2023-04-11T09:42:42.905Z,6.50
2023-04-11T09:43:54.139Z,6.70
2023-04-11T09:44:57.310Z,6.00
2023-04-11T09:46:10.893Z,6.70
2023-04-11T09:47:13.070Z,6.20
2023-04-11T09:48:15.617Z,6.10
2023-04-11T09:50:28.693Z,6.50
2023-04-11T09:51:37.017Z,6.40
2023-04-11T09:52:45.354Z,6.20
2023-04-11T09:53:50.531Z,6.10
2023-04-11T09:54:54.050Z,6.10
2023-04-11T09:55:56.665Z,5.80
2023-04-11T09:57:02.618Z,5.40
2023-04-11T09:58:05.423Z,6.00
2023-04-11T09:59:07.673Z,6.18
2023-04-11T10:01:23.886Z,5.50
2023-04-11T10:02:27.449Z,5.70
2023-04-11T10:03:31.178Z,6.00
2023-04-11T10:04:33.808Z,5.30
2023-04-11T10:05:41.406Z,6.30
2023-04-11T10:07:08.858Z,6.70
2023-04-11T10:08:31.938Z,6.10
2023-04-11T10:13:27.708Z,5.91
2023-04-11T10:14:41.842Z,6.10
2023-04-11T10:17:20.753Z,7.50
2023-04-11T10:18:20.824Z,7.30
2023-04-11T10:19:23.649Z,5.60
2023-04-11T10:22:02.052Z,6.40
2023-04-11T10:23:06.678Z,7.40
2023-04-11T10:24:13.482Z,6.50
2023-04-11T10:25:20.867Z,7.20
2023-04-11T10:26:26.800Z,6.90
2023-04-11T10:29:39.234Z,7.20
2023-04-11T10:30:47.641Z,5.90
2023-04-11T10:32:11.250Z,6.40
2023-04-11T10:33:19.708Z,6.10
2023-04-11T10:34:26.464Z,6.60
2023-04-11T10:35:29.768Z,4.70
2023-04-11T10:36:53.262Z,5.00
2023-04-11T10:37:55.578Z,5.70
2023-04-11T10:38:59.487Z,5.30
2023-04-11T10:40:04.660Z,4.70
2023-04-11T10:41:26.688Z,6.20
2023-04-11T10:42:43.146Z,4.70
2023-04-11T10:43:46.812Z,5.60
2023-04-11T10:45:10.896Z,4.90
2023-04-11T10:46:26.316Z,5.10
2023-04-11T10:47:31.782Z,4.60
2023-04-11T10:49:50.766Z,6.00
2023-04-11T10:50:55.621Z,5.64
2023-04-11T10:52:19.346Z,5.90
2023-04-11T10:53:38.571Z,5.90
2023-04-11T10:54:41.660Z,5.00
2023-04-11T10:55:54.357Z,5.00
2023-04-11T10:56:56.896Z,5.00
2023-04-11T10:58:21.836Z,4.30
2023-04-11T11:02:29.013Z,6.10
2023-04-11T11:03:32.631Z,5.90
2023-04-11T11:04:37.431Z,5.20
2023-04-11T11:05:46.447Z,5.70
2023-04-11T11:06:56.964Z,5.00
2023-04-11T11:07:55.811Z,5.10
2023-04-11T11:08:57.997Z,5.90
2023-04-11T11:10:02.368Z,1.40
2023-04-11T11:11:07.847Z,6.50
2023-04-11T11:12:17.307Z,5.70
2023-04-11T11:13:20.913Z,5.70
2023-04-11T11:14:38.769Z,6.20
2023-04-11T11:15:53.745Z,5.40
2023-04-11T11:16:57.809Z,6.10
2023-04-11T11:18:00.209Z,5.70
2023-04-11T11:19:04.734Z,6.20
2023-04-11T11:20:18.230Z,5.50
2023-04-11T11:22:28.634Z,5.40
2023-04-11T11:23:31.870Z,5.80
2023-04-11T11:24:37.092Z,5.60
2023-04-11T11:25:39.299Z,5.40
2023-04-11T11:26:43.250Z,6.30
2023-04-11T11:27:45.544Z,6.10
2023-04-11T11:28:50.273Z,6.30
2023-04-11T11:32:37.746Z,6.30
2023-04-11T11:34:43.682Z,6.00
2023-04-11T11:37:06.264Z,6.40
2023-04-11T11:39:21.295Z,6.40
2023-04-11T11:40:24.468Z,7.90
2023-04-11T11:41:27.595Z,6.60
2023-04-11T11:42:29.937Z,6.60
2023-04-11T11:43:36.021Z,8.10
2023-04-11T11:44:39.178Z,6.90
2023-04-11T11:45:42.609Z,5.50
2023-04-11T11:47:02.818Z,6.10
2023-04-11T11:49:51.742Z,6.00
2023-04-11T11:50:55.931Z,6.00
2023-04-11T11:51:58.133Z,5.90
2023-04-11T11:53:16.786Z,5.40
2023-04-11T11:54:18.986Z,5.10
2023-04-11T11:57:54.808Z,6.20
2023-04-11T11:58:57.202Z,6.20
2023-04-11T12:00:02.562Z,5.90
2023-04-11T12:02:16.565Z,6.20
2023-04-11T12:03:25.227Z,5.40
2023-04-11T12:04:27.547Z,5.70
2023-04-11T12:05:32.574Z,6.00
2023-04-11T12:06:35.249Z,6.00
2023-04-11T12:07:38.364Z,6.00
2023-04-11T12:08:40.969Z,4.90
2023-04-11T12:09:47.221Z,6.30
2023-04-11T12:10:51.382Z,5.50
2023-04-11T12:11:56.113Z,5.90
2023-04-11T12:12:58.387Z,5.50
2023-04-11T12:14:00.525Z,5.60
2023-04-11T12:15:11.503Z,4.80
2023-04-11T12:16:16.144Z,5.30
2023-04-11T12:17:18.478Z,5.70
2023-04-11T12:18:25.453Z,5.50
2023-04-11T12:19:33.138Z,6.40
2023-04-11T12:20:35.598Z,6.90
2023-04-11T12:21:37.897Z,5.90
2023-04-11T12:22:52.143Z,5.30
2023-04-11T12:23:57.994Z,6.70
2023-04-11T12:26:24.932Z,7.10
2023-04-11T12:27:29.946Z,6.50
2023-04-11T12:28:32.059Z,6.55
2023-04-11T12:29:34.024Z,7.60
2023-04-11T12:30:36.752Z,6.30
2023-04-11T12:31:45.340Z,7.40
2023-04-11T12:32:50.169Z,6.50
2023-04-11T12:33:52.786Z,6.40
2023-04-11T12:34:55.449Z,6.20
2023-04-11T12:35:57.625Z,5.60
2023-04-11T12:37:03.469Z,6.20
2023-04-11T12:38:05.461Z,6.10
2023-04-11T12:39:07.762Z,5.90
2023-04-11T12:40:11.318Z,7.45
2023-04-11T12:41:30.147Z,7.09
2023-04-11T12:42:20.953Z,7.00
2023-04-11T12:43:21.731Z,6.30
2023-04-11T12:44:23.965Z,6.00
2023-04-11T12:45:27.889Z,7.50
2023-04-11T12:46:31.164Z,7.30
2023-04-11T12:47:34.266Z,8.10
2023-04-11T12:48:36.396Z,7.10
2023-04-11T12:49:39.741Z,7.00
2023-04-11T12:50:44.367Z,7.20
2023-04-11T12:51:47.114Z,6.40
2023-04-11T12:52:50.394Z,6.60
2023-04-11T12:53:52.506Z,6.70
2023-04-11T12:54:55.092Z,6.20
2023-04-11T12:55:57.364Z,6.30
2023-04-11T12:57:05.618Z,6.27
2023-04-11T12:58:09.235Z,6.30
2023-04-11T13:08:45.612Z,7.00
2023-04-11T13:10:58.042Z,6.00
2023-04-11T13:16:11.395Z,6.90
2023-04-11T13:17:20.368Z,7.50
2023-04-11T13:18:22.407Z,5.20
2023-04-11T13:19:26.158Z,6.20
2023-04-11T13:21:47.893Z,6.80
2023-04-11T13:24:08.132Z,7.20
2023-04-11T13:25:10.628Z,7.10
2023-04-11T13:26:15.277Z,6.30
2023-04-11T13:27:17.376Z,6.90
2023-04-11T13:28:20.533Z,7.30
2023-04-11T13:29:22.653Z,7.20
2023-04-11T13:30:24.817Z,6.90
2023-04-11T13:31:27.618Z,7.40
2023-04-11T13:32:29.983Z,7.55
2023-04-11T13:33:40.169Z,5.80
2023-04-11T13:34:45.627Z,5.60
2023-04-11T13:35:47.695Z,6.20
2023-04-11T13:37:03.665Z,6.70
2023-04-11T13:38:08.645Z,6.20
2023-04-11T13:39:10.790Z,6.70
2023-04-11T13:40:13.845Z,7.45
2023-04-11T13:41:18.373Z,7.80
2023-04-11T13:42:20.460Z,7.20
2023-04-11T13:43:25.713Z,7.70
2023-04-11T13:44:27.843Z,6.90
2023-04-11T13:45:34.101Z,7.60
2023-04-11T13:46:36.505Z,9.20
2023-04-11T13:47:40.027Z,9.50
2023-04-11T13:48:43.460Z,8.80
2023-04-11T13:49:45.651Z,8.10
2023-04-11T13:50:48.027Z,8.00
2023-04-11T13:51:55.152Z,7.50
2023-04-11T13:52:58.237Z,6.90
2023-04-11T13:54:02.239Z,6.80
2023-04-11T13:55:05.779Z,7.10
2023-04-11T13:56:09.748Z,6.40
2023-04-11T13:57:11.872Z,7.10
2023-04-11T13:58:14.762Z,7.40
2023-04-11T13:59:17.549Z,5.80
2023-04-11T14:00:21.982Z,5.80
2023-04-11T14:01:24.383Z,6.20
2023-04-11T14:02:27.695Z,7.20
2023-04-11T14:03:30.097Z,6.80
2023-04-11T14:04:35.911Z,5.90
2023-04-11T14:05:38.736Z,6.40
2023-04-11T14:06:41.133Z,7.00
2023-04-11T14:07:46.747Z,7.30
2023-04-11T14:09:00.318Z,6.70
2023-04-11T14:10:06.245Z,6.30
2023-04-11T14:12:32.851Z,7.30
2023-04-11T14:13:35.917Z,6.10
2023-04-11T14:14:38.230Z,7.22
2023-04-11T14:15:40.284Z,7.00
2023-04-11T14:16:42.390Z,5.80
2023-04-11T14:18:57.228Z,6.80
2023-04-11T14:19:59.434Z,6.20
2023-04-11T14:21:04.960Z,7.10
2023-04-11T14:22:07.052Z,7.30
2023-04-11T14:23:08.967Z,7.33
2023-04-11T14:24:15.808Z,7.10
2023-04-11T14:25:20.566Z,6.70
2023-04-11T14:26:23.666Z,7.10
2023-04-11T14:27:25.834Z,6.90
2023-04-11T14:28:28.498Z,7.00
2023-04-11T14:29:31.927Z,7.70
2023-04-11T14:30:36.261Z,6.70
2023-04-11T14:31:40.302Z,7.50
2023-04-11T14:32:43.331Z,7.50
2023-04-11T14:33:48.470Z,6.36
2023-04-11T14:34:54.661Z,6.80
2023-04-11T14:35:59.998Z,7.60
2023-04-11T14:38:15.945Z,7.50
2023-04-11T14:39:23.607Z,7.20
2023-04-11T14:40:28.170Z,7.10
2023-04-11T14:41:30.267Z,7.60
2023-04-11T14:42:38.811Z,7.10
2023-04-11T14:43:43.631Z,6.80
2023-04-11T14:44:45.747Z,6.40
2023-04-11T14:45:49.952Z,7.70
2023-04-11T14:46:54.139Z,6.60
2023-04-11T14:47:59.993Z,6.80
2023-04-11T14:49:08.759Z,7.00
2023-04-11T14:50:14.223Z,6.90
2023-04-11T14:51:16.339Z,6.60
2023-04-11T14:52:18.390Z,6.70
2023-04-11T14:53:24.010Z,7.10
2023-04-11T14:54:27.919Z,6.80
2023-04-11T14:55:32.567Z,7.10
2023-04-11T14:56:40.319Z,7.40
2023-04-11T14:57:55.653Z,7.70
2023-04-11T14:58:59.557Z,7.30
2023-04-11T15:00:06.323Z,8.40